sensor_id;sensor_type;location;lat;lon;timestamp;P1;durP1;ratioP1;P2;durP2;ratioP2
673;SDS011;319;48.764;9.174;2023-07-24T00:01:23;0.80;;;0.80;;
673;SDS011;319;48.764;9.174;2023-07-24T00:03:50;0.90;;;0.90;;
673;SDS011;319;48.764;9.174;2023-07-24T00:06:16;0.90;;;0.90;;
673;SDS011;319;48.764;9.174;2023-07-24T00:08:43;0.80;;;0.80;;
673;SDS011;319;48.764;9.174;2023-07-24T00:11:10;0.80;;;0.80;;
673;SDS011;319;48.764;9.174;2023-07-24T00:13:37;0.87;;;0.87;;
673;SDS011;319;48.764;9.174;2023-07-24T00:16:07;0.80;;;0.80;;
673;SDS011;319;48.764;9.174;2023-07-24T00:18:35;0.90;;;0.90;;
673;SDS011;319;48.764;9.174;2023-07-24T00:21:01;0.87;;;0.87;;
673;SDS011;319;48.764;9.174;2023-07-24T00:23:28;0.90;;;0.90;;
673;SDS011;319;48.764;9.174;2023-07-24T00:25:55;0.80;;;0.80;;
673;SDS011;319;48.764;9.174;2023-07-24T00:28:22;0.87;;;0.87;;
673;SDS011;319;48.764;9.174;2023-07-24T00:30:49;0.80;;;0.80;;
673;SDS011;319;48.764;9.174;2023-07-24T00:33:17;0.90;;;0.90;;
673;SDS011;319;48.764;9.174;2023-07-24T00:35:44;0.80;;;0.80;;
673;SDS011;319;48.764;9.174;2023-07-24T00:38:11;4.53;;;4.43;;
673;SDS011;319;48.764;9.174;2023-07-24T00:40:38;4.80;;;4.60;;
673;SDS011;319;48.764;9.174;2023-07-24T00:43:05;1.57;;;1.57;;
673;SDS011;319;48.764;9.174;2023-07-24T00:45:32;3.17;;;3.07;;
673;SDS011;319;48.764;9.174;2023-07-24T00:47:59;1.10;;;1.10;;
673;SDS011;319;48.764;9.174;2023-07-24T00:50:28;2.30;;;2.30;;
673;SDS011;319;48.764;9.174;2023-07-24T00:52:56;5.33;;;5.23;;
673;SDS011;319;48.764;9.174;2023-07-24T00:55:23;7.53;;;7.33;;
673;SDS011;319;48.764;9.174;2023-07-24T00:57:51;4.77;;;4.67;;
673;SDS011;319;48.764;9.174;2023-07-24T01:00:18;9.50;;;9.30;;
673;SDS011;319;48.764;9.174;2023-07-24T01:02:45;9.17;;;8.97;;
673;SDS011;319;48.764;9.174;2023-07-24T01:05:15;8.90;;;8.70;;
673;SDS011;319;48.764;9.174;2023-07-24T01:07:45;8.63;;;8.43;;
673;SDS011;319;48.764;9.174;2023-07-24T01:10:11;8.63;;;8.43;;
673;SDS011;319;48.764;9.174;2023-07-24T01:12:39;8.43;;;8.23;;
673;SDS011;319;48.764;9.174;2023-07-24T01:15:19;9.63;;;9.43;;
673;SDS011;319;48.764;9.174;2023-07-24T01:17:53;9.40;;;9.20;;
673;SDS011;319;48.764;9.174;2023-07-24T01:20:26;8.60;;;8.40;;
673;SDS011;319;48.764;9.174;2023-07-24T01:23:02;8.70;;;8.50;;
673;SDS011;319;48.764;9.174;2023-07-24T01:25:55;8.80;;;8.60;;
673;SDS011;319;48.764;9.174;2023-07-24T01:28:23;9.40;;;9.20;;
673;SDS011;319;48.764;9.174;2023-07-24T01:30:50;7.93;;;7.73;;
673;SDS011;319;48.764;9.174;2023-07-24T01:33:17;9.20;;;9.00;;
673;SDS011;319;48.764;9.174;2023-07-24T01:35:45;7.10;;;6.90;;
673;SDS011;319;48.764;9.174;2023-07-24T01:38:15;3.13;;;3.03;;
673;SDS011;319;48.764;9.174;2023-07-24T01:40:42;1.50;;;1.50;;
673;SDS011;319;48.764;9.174;2023-07-24T01:43:11;3.30;;;3.20;;
673;SDS011;319;48.764;9.174;2023-07-24T01:45:41;2.20;;;2.20;;
673;SDS011;319;48.764;9.174;2023-07-24T01:48:08;1.80;;;1.80;;
673;SDS011;319;48.764;9.174;2023-07-24T01:50:35;1.83;;;1.83;;
673;SDS011;319;48.764;9.174;2023-07-24T01:53:02;1.10;;;1.10;;
673;SDS011;319;48.764;9.174;2023-07-24T01:55:29;1.27;;;1.27;;
673;SDS011;319;48.764;9.174;2023-07-24T01:57:56;1.60;;;1.60;;
673;SDS011;319;48.764;9.174;2023-07-24T02:00:24;2.40;;;2.40;;
673;SDS011;319;48.764;9.174;2023-07-24T02:02:51;3.50;;;3.40;;
673;SDS011;319;48.764;9.174;2023-07-24T02:05:17;3.70;;;3.60;;
673;SDS011;319;48.764;9.174;2023-07-24T02:07:44;3.10;;;3.00;;
673;SDS011;319;48.764;9.174;2023-07-24T02:10:11;2.90;;;2.80;;
673;SDS011;319;48.764;9.174;2023-07-24T02:12:38;4.50;;;4.40;;
673;SDS011;319;48.764;9.174;2023-07-24T02:15:06;2.37;;;2.37;;
673;SDS011;319;48.764;9.174;2023-07-24T02:17:35;3.20;;;3.10;;
673;SDS011;319;48.764;9.174;2023-07-24T02:20:02;4.87;;;4.77;;
673;SDS011;319;48.764;9.174;2023-07-24T02:22:29;5.40;;;5.30;;
673;SDS011;319;48.764;9.174;2023-07-24T02:24:56;9.23;;;9.03;;
673;SDS011;319;48.764;9.174;2023-07-24T02:27:26;8.23;;;8.03;;
673;SDS011;319;48.764;9.174;2023-07-24T02:29:56;9.20;;;9.00;;
673;SDS011;319;48.764;9.174;2023-07-24T02:32:23;9.13;;;8.93;;
673;SDS011;319;48.764;9.174;2023-07-24T02:34:51;10.10;;;9.83;;
673;SDS011;319;48.764;9.174;2023-07-24T02:37:19;10.37;;;10.07;;
673;SDS011;319;48.764;9.174;2023-07-24T02:39:46;7.20;;;7.00;;
673;SDS011;319;48.764;9.174;2023-07-24T02:42:13;9.70;;;9.50;;
673;SDS011;319;48.764;9.174;2023-07-24T02:44:40;9.60;;;9.40;;
673;SDS011;319;48.764;9.174;2023-07-24T02:47:06;10.70;;;10.40;;
673;SDS011;319;48.764;9.174;2023-07-24T02:49:33;10.50;;;10.20;;
673;SDS011;319;48.764;9.174;2023-07-24T02:52:02;8.63;;;8.43;;
673;SDS011;319;48.764;9.174;2023-07-24T02:54:29;9.70;;;9.50;;
673;SDS011;319;48.764;9.174;2023-07-24T02:56:56;9.90;;;9.70;;
673;SDS011;319;48.764;9.174;2023-07-24T02:59:23;9.97;;;9.77;;
673;SDS011;319;48.764;9.174;2023-07-24T03:01:50;9.33;;;9.13;;
673;SDS011;319;48.764;9.174;2023-07-24T03:04:17;10.10;;;9.83;;
673;SDS011;319;48.764;9.174;2023-07-24T03:06:44;11.30;;;11.00;;
673;SDS011;319;48.764;9.174;2023-07-24T03:09:13;7.13;;;6.93;;
673;SDS011;319;48.764;9.174;2023-07-24T03:11:40;9.13;;;8.93;;
673;SDS011;319;48.764;9.174;2023-07-24T03:14:07;10.43;;;10.13;;
673;SDS011;319;48.764;9.174;2023-07-24T03:16:34;10.20;;;9.90;;
673;SDS011;319;48.764;9.174;2023-07-24T03:19:01;10.70;;;10.40;;
673;SDS011;319;48.764;9.174;2023-07-24T03:21:28;10.80;;;10.50;;
673;SDS011;319;48.764;9.174;2023-07-24T03:23:54;9.03;;;8.83;;
673;SDS011;319;48.764;9.174;2023-07-24T03:26:23;8.37;;;8.17;;
673;SDS011;319;48.764;9.174;2023-07-24T03:28:49;9.33;;;9.13;;
673;SDS011;319;48.764;9.174;2023-07-24T03:31:16;9.40;;;9.20;;
673;SDS011;319;48.764;9.174;2023-07-24T03:33:43;10.03;;;9.80;;
673;SDS011;319;48.764;9.174;2023-07-24T03:36:10;7.87;;;7.67;;
673;SDS011;319;48.764;9.174;2023-07-24T03:38:37;5.40;;;5.30;;
673;SDS011;319;48.764;9.174;2023-07-24T03:41:04;5.97;;;5.87;;
673;SDS011;319;48.764;9.174;2023-07-24T03:43:32;0.97;;;0.97;;
673;SDS011;319;48.764;9.174;2023-07-24T03:45:59;1.20;;;1.20;;
673;SDS011;319;48.764;9.174;2023-07-24T03:48:26;5.63;;;5.53;;
673;SDS011;319;48.764;9.174;2023-07-24T03:50:57;6.33;;;6.20;;
673;SDS011;319;48.764;9.174;2023-07-24T03:53:25;5.00;;;4.90;;
673;SDS011;319;48.764;9.174;2023-07-24T03:55:57;4.60;;;4.50;;
673;SDS011;319;48.764;9.174;2023-07-24T03:58:24;5.60;;;5.50;;
673;SDS011;319;48.764;9.174;2023-07-24T04:00:53;5.20;;;5.10;;
673;SDS011;319;48.764;9.174;2023-07-24T04:03:20;3.10;;;3.00;;
673;SDS011;319;48.764;9.174;2023-07-24T04:05:47;5.10;;;5.00;;
673;SDS011;319;48.764;9.174;2023-07-24T04:08:14;5.90;;;5.80;;
673;SDS011;319;48.764;9.174;2023-07-24T04:10:40;4.97;;;4.87;;
673;SDS011;319;48.764;9.174;2023-07-24T04:13:07;6.20;;;6.10;;
673;SDS011;319;48.764;9.174;2023-07-24T04:15:34;7.00;;;6.80;;
673;SDS011;319;48.764;9.174;2023-07-24T04:18:03;4.00;;;3.90;;
673;SDS011;319;48.764;9.174;2023-07-24T04:20:30;6.83;;;6.63;;
673;SDS011;319;48.764;9.174;2023-07-24T04:22:57;3.43;;;3.33;;
673;SDS011;319;48.764;9.174;2023-07-24T04:25:24;5.97;;;5.87;;
673;SDS011;319;48.764;9.174;2023-07-24T04:27:50;4.60;;;4.50;;
673;SDS011;319;48.764;9.174;2023-07-24T04:30:17;0.90;;;0.90;;
673;SDS011;319;48.764;9.174;2023-07-24T04:32:44;1.90;;;1.90;;
673;SDS011;319;48.764;9.174;2023-07-24T04:35:13;7.50;;;7.30;;
673;SDS011;319;48.764;9.174;2023-07-24T04:37:40;5.87;;;5.77;;
673;SDS011;319;48.764;9.174;2023-07-24T04:40:08;7.53;;;7.33;;
673;SDS011;319;48.764;9.174;2023-07-24T04:42:38;11.20;;;10.90;;
673;SDS011;319;48.764;9.174;2023-07-24T04:45:05;11.37;;;11.07;;
673;SDS011;319;48.764;9.174;2023-07-24T04:47:33;8.40;;;8.20;;
673;SDS011;319;48.764;9.174;2023-07-24T04:50:02;9.53;;;9.33;;
673;SDS011;319;48.764;9.174;2023-07-24T04:52:30;9.90;;;9.70;;
673;SDS011;319;48.764;9.174;2023-07-24T04:54:57;10.60;;;10.30;;
673;SDS011;319;48.764;9.174;2023-07-24T04:57:24;10.70;;;10.40;;
673;SDS011;319;48.764;9.174;2023-07-24T04:59:51;5.77;;;5.67;;
673;SDS011;319;48.764;9.174;2023-07-24T05:02:18;6.47;;;6.30;;
673;SDS011;319;48.764;9.174;2023-07-24T05:04:45;8.83;;;8.63;;
673;SDS011;319;48.764;9.174;2023-07-24T05:07:12;1.30;;;1.30;;
673;SDS011;319;48.764;9.174;2023-07-24T05:09:40;10.43;;;10.13;;
673;SDS011;319;48.764;9.174;2023-07-24T05:12:08;11.10;;;10.80;;
673;SDS011;319;48.764;9.174;2023-07-24T05:14:35;8.10;;;7.90;;
673;SDS011;319;48.764;9.174;2023-07-24T05:17:02;8.23;;;8.03;;
673;SDS011;319;48.764;9.174;2023-07-24T05:19:29;5.80;;;5.70;;
673;SDS011;319;48.764;9.174;2023-07-24T05:21:56;9.87;;;9.67;;
673;SDS011;319;48.764;9.174;2023-07-24T05:24:24;9.00;;;8.80;;
673;SDS011;319;48.764;9.174;2023-07-24T05:26:52;9.87;;;9.67;;
673;SDS011;319;48.764;9.174;2023-07-24T05:29:22;7.20;;;7.00;;
673;SDS011;319;48.764;9.174;2023-07-24T05:31:50;3.30;;;3.20;;
673;SDS011;319;48.764;9.174;2023-07-24T05:34:19;5.93;;;5.83;;
673;SDS011;319;48.764;9.174;2023-07-24T05:36:46;6.00;;;5.90;;
673;SDS011;319;48.764;9.174;2023-07-24T05:39:13;7.10;;;6.90;;
673;SDS011;319;48.764;9.174;2023-07-24T05:41:40;6.23;;;6.13;;
673;SDS011;319;48.764;9.174;2023-07-24T05:46:50;5.70;;;5.60;;
673;SDS011;319;48.764;9.174;2023-07-24T05:49:17;5.70;;;5.60;;
673;SDS011;319;48.764;9.174;2023-07-24T05:51:47;6.40;;;6.23;;
673;SDS011;319;48.764;9.174;2023-07-24T05:54:14;5.30;;;5.20;;
673;SDS011;319;48.764;9.174;2023-07-24T05:56:43;7.30;;;7.10;;
673;SDS011;319;48.764;9.174;2023-07-24T05:59:10;6.43;;;6.30;;
673;SDS011;319;48.764;9.174;2023-07-24T06:01:38;7.30;;;7.10;;
673;SDS011;319;48.764;9.174;2023-07-24T06:04:05;7.40;;;7.20;;
673;SDS011;319;48.764;9.174;2023-07-24T06:06:32;7.10;;;6.90;;
673;SDS011;319;48.764;9.174;2023-07-24T06:08:59;6.60;;;6.40;;
673;SDS011;319;48.764;9.174;2023-07-24T06:11:29;5.80;;;5.70;;
673;SDS011;319;48.764;9.174;2023-07-24T06:13:56;7.30;;;7.10;;
673;SDS011;319;48.764;9.174;2023-07-24T06:16:23;7.33;;;7.13;;
673;SDS011;319;48.764;9.174;2023-07-24T06:18:51;6.07;;;5.97;;
673;SDS011;319;48.764;9.174;2023-07-24T06:21:18;7.20;;;7.00;;
673;SDS011;319;48.764;9.174;2023-07-24T06:23:45;6.10;;;6.00;;
673;SDS011;319;48.764;9.174;2023-07-24T06:26:12;7.50;;;7.30;;
673;SDS011;319;48.764;9.174;2023-07-24T06:28:39;5.83;;;5.73;;
673;SDS011;319;48.764;9.174;2023-07-24T06:31:04;7.13;;;6.93;;
673;SDS011;319;48.764;9.174;2023-07-24T06:33:31;8.00;;;7.80;;
673;SDS011;319;48.764;9.174;2023-07-24T06:36:00;7.90;;;7.70;;
673;SDS011;319;48.764;9.174;2023-07-24T06:38:26;8.23;;;8.03;;
673;SDS011;319;48.764;9.174;2023-07-24T06:40:53;5.20;;;5.10;;
673;SDS011;319;48.764;9.174;2023-07-24T06:43:20;5.10;;;5.00;;
673;SDS011;319;48.764;9.174;2023-07-24T06:45:48;7.60;;;7.40;;
673;SDS011;319;48.764;9.174;2023-07-24T06:48:14;7.13;;;6.93;;
673;SDS011;319;48.764;9.174;2023-07-24T06:50:41;9.30;;;9.10;;
673;SDS011;319;48.764;9.174;2023-07-24T06:53:09;8.80;;;8.60;;
673;SDS011;319;48.764;9.174;2023-07-24T06:55:36;8.70;;;8.50;;
673;SDS011;319;48.764;9.174;2023-07-24T06:58:03;7.87;;;7.67;;
673;SDS011;319;48.764;9.174;2023-07-24T07:00:31;7.20;;;7.00;;
673;SDS011;319;48.764;9.174;2023-07-24T07:02:58;7.00;;;6.80;;
673;SDS011;319;48.764;9.174;2023-07-24T07:05:25;4.63;;;4.53;;
673;SDS011;319;48.764;9.174;2023-07-24T07:07:52;6.37;;;6.17;;
673;SDS011;319;48.764;9.174;2023-07-24T07:10:20;6.10;;;6.00;;
673;SDS011;319;48.764;9.174;2023-07-24T07:12:47;6.50;;;6.30;;
673;SDS011;319;48.764;9.174;2023-07-24T07:15:14;2.33;;;2.33;;
673;SDS011;319;48.764;9.174;2023-07-24T07:17:41;1.80;;;1.80;;
673;SDS011;319;48.764;9.174;2023-07-24T07:20:08;1.97;;;1.97;;
673;SDS011;319;48.764;9.174;2023-07-24T07:22:35;1.40;;;1.40;;
673;SDS011;319;48.764;9.174;2023-07-24T07:25:02;3.97;;;3.87;;
673;SDS011;319;48.764;9.174;2023-07-24T07:27:31;2.53;;;2.50;;
673;SDS011;319;48.764;9.174;2023-07-24T07:29:58;3.50;;;3.40;;
673;SDS011;319;48.764;9.174;2023-07-24T07:32:25;8.20;;;8.00;;
673;SDS011;319;48.764;9.174;2023-07-24T07:34:52;8.30;;;8.10;;
673;SDS011;319;48.764;9.174;2023-07-24T07:37:21;9.00;;;8.80;;
673;SDS011;319;48.764;9.174;2023-07-24T07:39:48;6.90;;;6.70;;
673;SDS011;319;48.764;9.174;2023-07-24T07:42:15;9.10;;;8.90;;
673;SDS011;319;48.764;9.174;2023-07-24T07:44:43;8.90;;;8.70;;
673;SDS011;319;48.764;9.174;2023-07-24T07:47:10;7.40;;;7.20;;
673;SDS011;319;48.764;9.174;2023-07-24T07:49:37;7.07;;;6.87;;
673;SDS011;319;48.764;9.174;2023-07-24T07:52:05;9.40;;;9.20;;
673;SDS011;319;48.764;9.174;2023-07-24T07:54:35;8.67;;;8.47;;
673;SDS011;319;48.764;9.174;2023-07-24T07:57:03;8.60;;;8.40;;
673;SDS011;319;48.764;9.174;2023-07-24T07:59:30;4.67;;;4.57;;
673;SDS011;319;48.764;9.174;2023-07-24T08:02:00;3.60;;;3.50;;
673;SDS011;319;48.764;9.174;2023-07-24T08:04:27;6.63;;;6.43;;
673;SDS011;319;48.764;9.174;2023-07-24T08:06:54;2.37;;;2.37;;
673;SDS011;319;48.764;9.174;2023-07-24T08:09:21;9.80;;;9.60;;
673;SDS011;319;48.764;9.174;2023-07-24T08:11:49;8.23;;;8.03;;
673;SDS011;319;48.764;9.174;2023-07-24T08:14:16;9.00;;;8.80;;
673;SDS011;319;48.764;9.174;2023-07-24T08:16:43;8.57;;;8.37;;
673;SDS011;319;48.764;9.174;2023-07-24T08:19:11;10.17;;;9.87;;
673;SDS011;319;48.764;9.174;2023-07-24T08:21:38;9.97;;;9.70;;
673;SDS011;319;48.764;9.174;2023-07-24T08:24:05;10.83;;;10.53;;
673;SDS011;319;48.764;9.174;2023-07-24T08:26:32;9.13;;;8.93;;
673;SDS011;319;48.764;9.174;2023-07-24T08:28:59;9.03;;;8.83;;
673;SDS011;319;48.764;9.174;2023-07-24T08:31:29;1.20;;;1.20;;
673;SDS011;319;48.764;9.174;2023-07-24T08:33:56;8.30;;;8.10;;
673;SDS011;319;48.764;9.174;2023-07-24T08:36:24;1.60;;;1.60;;
673;SDS011;319;48.764;9.174;2023-07-24T08:38:51;7.10;;;6.90;;
673;SDS011;319;48.764;9.174;2023-07-24T08:41:18;0.90;;;0.90;;
673;SDS011;319;48.764;9.174;2023-07-24T08:43:45;0.90;;;0.90;;
673;SDS011;319;48.764;9.174;2023-07-24T08:46:12;6.80;;;6.60;;
673;SDS011;319;48.764;9.174;2023-07-24T08:48:40;4.13;;;4.03;;
673;SDS011;319;48.764;9.174;2023-07-24T08:51:08;4.27;;;4.17;;
673;SDS011;319;48.764;9.174;2023-07-24T08:53:37;1.03;;;1.03;;
673;SDS011;319;48.764;9.174;2023-07-24T08:56:09;2.70;;;2.60;;
673;SDS011;319;48.764;9.174;2023-07-24T08:58:38;4.00;;;3.90;;
673;SDS011;319;48.764;9.174;2023-07-24T09:01:05;5.10;;;5.00;;
673;SDS011;319;48.764;9.174;2023-07-24T09:03:33;5.23;;;5.13;;
673;SDS011;319;48.764;9.174;2023-07-24T09:06:00;5.20;;;5.10;;
673;SDS011;319;48.764;9.174;2023-07-24T09:08:29;4.73;;;4.63;;
673;SDS011;319;48.764;9.174;2023-07-24T09:10:58;5.30;;;5.20;;
673;SDS011;319;48.764;9.174;2023-07-24T09:13:25;5.70;;;5.60;;
673;SDS011;319;48.764;9.174;2023-07-24T09:15:52;6.00;;;5.90;;
673;SDS011;319;48.764;9.174;2023-07-24T09:18:20;4.60;;;4.50;;
673;SDS011;319;48.764;9.174;2023-07-24T09:20:47;5.73;;;5.63;;
673;SDS011;319;48.764;9.174;2023-07-24T09:23:14;5.40;;;5.30;;
673;SDS011;319;48.764;9.174;2023-07-24T09:25:42;3.80;;;3.70;;
673;SDS011;319;48.764;9.174;2023-07-24T09:28:12;3.37;;;3.27;;
673;SDS011;319;48.764;9.174;2023-07-24T09:30:40;1.60;;;1.60;;
673;SDS011;319;48.764;9.174;2023-07-24T09:33:09;0.90;;;0.90;;
673;SDS011;319;48.764;9.174;2023-07-24T09:35:38;4.10;;;4.00;;
673;SDS011;319;48.764;9.174;2023-07-24T09:38:10;3.80;;;3.70;;
673;SDS011;319;48.764;9.174;2023-07-24T09:40:41;1.50;;;1.50;;
673;SDS011;319;48.764;9.174;2023-07-24T09:43:17;1.00;;;1.00;;
673;SDS011;319;48.764;9.174;2023-07-24T09:45:44;1.00;;;1.00;;
673;SDS011;319;48.764;9.174;2023-07-24T09:48:12;1.90;;;1.90;;
673;SDS011;319;48.764;9.174;2023-07-24T09:50:41;1.13;;;1.13;;
673;SDS011;319;48.764;9.174;2023-07-24T09:53:11;2.57;;;2.47;;
673;SDS011;319;48.764;9.174;2023-07-24T09:55:49;4.83;;;4.73;;
673;SDS011;319;48.764;9.174;2023-07-24T09:58:22;3.77;;;3.67;;
673;SDS011;319;48.764;9.174;2023-07-24T10:00:51;5.70;;;5.57;;
673;SDS011;319;48.764;9.174;2023-07-24T10:03:18;1.30;;;1.30;;
673;SDS011;319;48.764;9.174;2023-07-24T10:05:46;4.57;;;4.47;;
673;SDS011;319;48.764;9.174;2023-07-24T10:08:14;8.20;;;8.00;;
673;SDS011;319;48.764;9.174;2023-07-24T10:10:43;1.13;;;1.13;;
673;SDS011;319;48.764;9.174;2023-07-24T10:13:11;0.90;;;0.90;;
673;SDS011;319;48.764;9.174;2023-07-24T10:15:41;0.80;;;0.80;;
673;SDS011;319;48.764;9.174;2023-07-24T10:18:09;0.80;;;0.80;;
673;SDS011;319;48.764;9.174;2023-07-24T10:20:36;0.73;;;0.73;;
673;SDS011;319;48.764;9.174;2023-07-24T10:23:05;0.90;;;0.90;;
673;SDS011;319;48.764;9.174;2023-07-24T10:25:35;0.80;;;0.80;;
673;SDS011;319;48.764;9.174;2023-07-24T10:28:06;0.70;;;0.70;;
673;SDS011;319;48.764;9.174;2023-07-24T10:30:35;4.43;;;1.57;;
673;SDS011;319;48.764;9.174;2023-07-24T10:33:05;0.80;;;0.80;;
673;SDS011;319;48.764;9.174;2023-07-24T10:35:36;0.70;;;0.70;;
673;SDS011;319;48.764;9.174;2023-07-24T10:38:04;0.80;;;0.80;;
673;SDS011;319;48.764;9.174;2023-07-24T10:40:31;8.50;;;8.30;;
673;SDS011;319;48.764;9.174;2023-07-24T10:43:42;6.70;;;6.50;;
673;SDS011;319;48.764;9.174;2023-07-24T10:46:10;4.73;;;4.63;;
673;SDS011;319;48.764;9.174;2023-07-24T10:48:41;3.60;;;3.50;;
673;SDS011;319;48.764;9.174;2023-07-24T10:51:09;5.30;;;5.20;;
673;SDS011;319;48.764;9.174;2023-07-24T10:53:40;2.07;;;2.07;;
673;SDS011;319;48.764;9.174;2023-07-24T10:56:09;1.23;;;1.23;;
673;SDS011;319;48.764;9.174;2023-07-24T10:58:36;1.30;;;1.30;;
673;SDS011;319;48.764;9.174;2023-07-24T11:01:03;2.63;;;2.53;;
673;SDS011;319;48.764;9.174;2023-07-24T11:03:31;1.10;;;1.10;;
673;SDS011;319;48.764;9.174;2023-07-24T11:05:59;0.93;;;0.93;;
673;SDS011;319;48.764;9.174;2023-07-24T11:08:28;1.20;;;1.20;;
673;SDS011;319;48.764;9.174;2023-07-24T11:10:56;1.33;;;1.33;;
673;SDS011;319;48.764;9.174;2023-07-24T11:13:24;1.30;;;1.30;;
673;SDS011;319;48.764;9.174;2023-07-24T11:15:52;2.73;;;2.63;;
673;SDS011;319;48.764;9.174;2023-07-24T11:18:20;3.03;;;2.93;;
673;SDS011;319;48.764;9.174;2023-07-24T11:20:52;1.30;;;1.30;;
673;SDS011;319;48.764;9.174;2023-07-24T11:23:21;1.10;;;1.10;;
673;SDS011;319;48.764;9.174;2023-07-24T11:25:52;0.90;;;0.90;;
673;SDS011;319;48.764;9.174;2023-07-24T11:28:20;1.00;;;1.00;;
673;SDS011;319;48.764;9.174;2023-07-24T11:30:47;0.90;;;0.90;;
673;SDS011;319;48.764;9.174;2023-07-24T11:33:16;0.80;;;0.80;;
673;SDS011;319;48.764;9.174;2023-07-24T11:35:45;0.80;;;0.80;;
673;SDS011;319;48.764;9.174;2023-07-24T11:38:13;0.80;;;0.80;;
673;SDS011;319;48.764;9.174;2023-07-24T11:40:42;0.90;;;0.90;;
673;SDS011;319;48.764;9.174;2023-07-24T11:43:19;0.90;;;0.90;;
673;SDS011;319;48.764;9.174;2023-07-24T11:45:47;0.80;;;0.80;;
673;SDS011;319;48.764;9.174;2023-07-24T11:48:17;0.90;;;0.90;;
673;SDS011;319;48.764;9.174;2023-07-24T11:50:45;1.10;;;1.10;;
673;SDS011;319;48.764;9.174;2023-07-24T11:53:20;4.13;;;4.03;;
673;SDS011;319;48.764;9.174;2023-07-24T11:55:50;2.40;;;2.40;;
673;SDS011;319;48.764;9.174;2023-07-24T11:58:17;3.90;;;3.80;;
673;SDS011;319;48.764;9.174;2023-07-24T12:00:45;4.80;;;4.70;;
673;SDS011;319;48.764;9.174;2023-07-24T12:03:13;3.57;;;3.47;;
673;SDS011;319;48.764;9.174;2023-07-24T12:05:40;4.50;;;4.40;;
673;SDS011;319;48.764;9.174;2023-07-24T12:08:08;4.70;;;4.60;;
673;SDS011;319;48.764;9.174;2023-07-24T12:10:36;4.40;;;4.30;;
673;SDS011;319;48.764;9.174;2023-07-24T12:13:05;4.50;;;4.40;;
673;SDS011;319;48.764;9.174;2023-07-24T12:15:33;4.97;;;4.87;;
673;SDS011;319;48.764;9.174;2023-07-24T12:18:00;4.60;;;4.50;;
673;SDS011;319;48.764;9.174;2023-07-24T12:20:28;3.90;;;3.80;;
673;SDS011;319;48.764;9.174;2023-07-24T12:22:56;1.50;;;1.50;;
673;SDS011;319;48.764;9.174;2023-07-24T12:25:23;2.67;;;2.60;;
673;SDS011;319;48.764;9.174;2023-07-24T12:27:50;2.10;;;2.10;;
673;SDS011;319;48.764;9.174;2023-07-24T12:30:18;1.00;;;1.00;;
673;SDS011;319;48.764;9.174;2023-07-24T12:32:45;0.90;;;0.90;;
673;SDS011;319;48.764;9.174;2023-07-24T12:35:12;1.00;;;1.00;;
673;SDS011;319;48.764;9.174;2023-07-24T12:37:39;1.30;;;1.30;;
673;SDS011;319;48.764;9.174;2023-07-24T12:40:07;1.00;;;1.00;;
673;SDS011;319;48.764;9.174;2023-07-24T12:42:35;0.90;;;0.90;;
673;SDS011;319;48.764;9.174;2023-07-24T12:45:02;2.00;;;2.00;;
673;SDS011;319;48.764;9.174;2023-07-24T12:47:32;3.50;;;3.40;;
673;SDS011;319;48.764;9.174;2023-07-24T12:49:59;5.13;;;5.03;;
673;SDS011;319;48.764;9.174;2023-07-24T12:52:28;5.40;;;5.30;;
673;SDS011;319;48.764;9.174;2023-07-24T12:54:55;3.30;;;3.20;;
673;SDS011;319;48.764;9.174;2023-07-24T12:57:22;4.77;;;4.67;;
673;SDS011;319;48.764;9.174;2023-07-24T12:59:51;4.37;;;4.27;;
673;SDS011;319;48.764;9.174;2023-07-24T13:02:18;7.37;;;7.17;;
673;SDS011;319;48.764;9.174;2023-07-24T13:04:46;7.63;;;7.43;;
673;SDS011;319;48.764;9.174;2023-07-24T13:07:13;8.10;;;7.90;;
673;SDS011;319;48.764;9.174;2023-07-24T13:09:40;6.97;;;6.77;;
673;SDS011;319;48.764;9.174;2023-07-24T13:12:07;4.23;;;4.13;;
673;SDS011;319;48.764;9.174;2023-07-24T13:14:35;7.43;;;7.23;;
673;SDS011;319;48.764;9.174;2023-07-24T13:17:05;6.93;;;6.73;;
673;SDS011;319;48.764;9.174;2023-07-24T13:19:32;6.17;;;6.07;;
673;SDS011;319;48.764;9.174;2023-07-24T13:22:00;2.90;;;2.80;;
673;SDS011;319;48.764;9.174;2023-07-24T13:24:27;0.70;;;0.70;;
673;SDS011;319;48.764;9.174;2023-07-24T13:26:55;9.13;;;8.93;;
673;SDS011;319;48.764;9.174;2023-07-24T13:29:22;7.63;;;7.43;;
673;SDS011;319;48.764;9.174;2023-07-24T13:31:49;3.90;;;3.80;;
673;SDS011;319;48.764;9.174;2023-07-24T13:34:20;9.10;;;8.90;;
673;SDS011;319;48.764;9.174;2023-07-24T13:36:48;10.97;;;10.67;;
673;SDS011;319;48.764;9.174;2023-07-24T13:39:16;8.43;;;8.23;;
673;SDS011;319;48.764;9.174;2023-07-24T13:41:43;10.77;;;10.47;;
673;SDS011;319;48.764;9.174;2023-07-24T13:44:10;10.60;;;10.30;;
673;SDS011;319;48.764;9.174;2023-07-24T13:46:37;10.50;;;10.20;;
673;SDS011;319;48.764;9.174;2023-07-24T13:49:06;7.80;;;7.60;;
673;SDS011;319;48.764;9.174;2023-07-24T13:51:33;9.07;;;8.87;;
673;SDS011;319;48.764;9.174;2023-07-24T13:54:00;9.60;;;9.40;;
673;SDS011;319;48.764;9.174;2023-07-24T13:56:29;9.97;;;9.73;;
673;SDS011;319;48.764;9.174;2023-07-24T13:58:58;8.80;;;8.60;;
673;SDS011;319;48.764;9.174;2023-07-24T14:01:25;10.50;;;10.20;;
673;SDS011;319;48.764;9.174;2023-07-24T14:03:52;10.60;;;10.30;;
673;SDS011;319;48.764;9.174;2023-07-24T14:06:19;10.03;;;9.73;;
673;SDS011;319;48.764;9.174;2023-07-24T14:08:46;9.90;;;9.70;;
673;SDS011;319;48.764;9.174;2023-07-24T14:11:13;9.50;;;9.30;;
673;SDS011;319;48.764;9.174;2023-07-24T14:13:41;9.80;;;9.60;;
673;SDS011;319;48.764;9.174;2023-07-24T14:16:10;10.30;;;10.00;;
673;SDS011;319;48.764;9.174;2023-07-24T14:18:37;8.53;;;8.33;;
673;SDS011;319;48.764;9.174;2023-07-24T14:21:04;10.50;;;10.20;;
673;SDS011;319;48.764;9.174;2023-07-24T14:23:31;10.33;;;10.03;;
673;SDS011;319;48.764;9.174;2023-07-24T14:25:58;9.20;;;9.00;;
673;SDS011;319;48.764;9.174;2023-07-24T14:28:25;8.50;;;8.30;;
673;SDS011;319;48.764;9.174;2023-07-24T14:30:53;10.10;;;9.80;;
673;SDS011;319;48.764;9.174;2023-07-24T14:33:21;10.40;;;10.10;;
673;SDS011;319;48.764;9.174;2023-07-24T14:35:48;9.30;;;9.10;;
673;SDS011;319;48.764;9.174;2023-07-24T14:38:15;8.70;;;8.50;;
673;SDS011;319;48.764;9.174;2023-07-24T14:40:42;9.20;;;9.00;;
673;SDS011;319;48.764;9.174;2023-07-24T14:43:09;7.70;;;7.50;;
673;SDS011;319;48.764;9.174;2023-07-24T14:45:36;8.63;;;8.43;;
673;SDS011;319;48.764;9.174;2023-07-24T14:48:05;9.80;;;9.60;;
673;SDS011;319;48.764;9.174;2023-07-24T14:50:35;7.77;;;7.57;;
673;SDS011;319;48.764;9.174;2023-07-24T14:53:02;8.50;;;8.30;;
673;SDS011;319;48.764;9.174;2023-07-24T14:55:29;8.60;;;8.40;;
673;SDS011;319;48.764;9.174;2023-07-24T14:58:03;8.87;;;8.67;;
673;SDS011;319;48.764;9.174;2023-07-24T15:00:31;7.67;;;7.47;;
673;SDS011;319;48.764;9.174;2023-07-24T15:02:58;8.13;;;7.93;;
673;SDS011;319;48.764;9.174;2023-07-24T15:05:34;8.70;;;8.50;;
673;SDS011;319;48.764;9.174;2023-07-24T15:08:28;9.60;;;9.40;;
673;SDS011;319;48.764;9.174;2023-07-24T15:11:04;7.87;;;7.67;;
673;SDS011;319;48.764;9.174;2023-07-24T15:13:31;10.60;;;10.30;;
673;SDS011;319;48.764;9.174;2023-07-24T15:16:02;10.50;;;10.20;;
673;SDS011;319;48.764;9.174;2023-07-24T15:18:29;10.40;;;10.10;;
673;SDS011;319;48.764;9.174;2023-07-24T15:20:59;9.67;;;9.47;;
673;SDS011;319;48.764;9.174;2023-07-24T15:23:32;10.70;;;10.40;;
673;SDS011;319;48.764;9.174;2023-07-24T15:26:02;9.73;;;9.53;;
673;SDS011;319;48.764;9.174;2023-07-24T15:28:36;9.30;;;9.10;;
673;SDS011;319;48.764;9.174;2023-07-24T15:31:09;10.90;;;10.60;;
673;SDS011;319;48.764;9.174;2023-07-24T15:33:39;7.87;;;7.67;;
673;SDS011;319;48.764;9.174;2023-07-24T15:36:10;10.80;;;10.50;;
673;SDS011;319;48.764;9.174;2023-07-24T15:38:37;10.90;;;10.60;;
673;SDS011;319;48.764;9.174;2023-07-24T15:41:04;12.47;;;12.17;;
673;SDS011;319;48.764;9.174;2023-07-24T15:43:32;10.40;;;10.10;;
673;SDS011;319;48.764;9.174;2023-07-24T15:45:59;8.10;;;7.90;;
673;SDS011;319;48.764;9.174;2023-07-24T15:48:26;8.00;;;7.80;;
673;SDS011;319;48.764;9.174;2023-07-24T15:50:55;7.73;;;7.53;;